sensor_id;sensor_type;location;lat;lon;timestamp;temperature;humidity
74873;HTU21D;68776;44.762;37.698;2023-04-19T00:00:06;16.24;65.37
74873;HTU21D;68776;44.762;37.698;2023-04-19T00:01:07;16.24;65.39
74873;HTU21D;68776;44.762;37.698;2023-04-19T00:02:08;16.25;65.21
74873;HTU21D;68776;44.762;37.698;2023-04-19T00:03:09;16.28;65.14
74873;HTU21D;68776;44.762;37.698;2023-04-19T00:04:10;16.32;65.06
74873;HTU21D;68776;44.762;37.698;2023-04-19T00:05:11;16.37;64.86
74873;HTU21D;68776;44.762;37.698;2023-04-19T00:06:13;16.43;64.56
74873;HTU21D;68776;44.762;37.698;2023-04-19T00:07:14;16.50;64.24
74873;HTU21D;68776;44.762;37.698;2023-04-19T00:08:16;16.56;64.10
74873;HTU21D;68776;44.762;37.698;2023-04-19T00:09:17;16.63;63.65
74873;HTU21D;68776;44.762;37.698;2023-04-19T00:10:18;16.71;63.31
74873;HTU21D;68776;44.762;37.698;2023-04-19T00:11:19;16.79;62.92
74873;HTU21D;68776;44.762;37.698;2023-04-19T00:12:20;16.85;62.82
74873;HTU21D;68776;44.762;37.698;2023-04-19T00:13:21;16.88;62.71
74873;HTU21D;68776;44.762;37.698;2023-04-19T00:14:22;16.90;62.58
74873;HTU21D;68776;44.762;37.698;2023-04-19T00:15:23;16.90;62.65
74873;HTU21D;68776;44.762;37.698;2023-04-19T00:16:24;16.88;62.65
74873;HTU21D;68776;44.762;37.698;2023-04-19T00:17:25;16.90;62.60
74873;HTU21D;68776;44.762;37.698;2023-04-19T00:18:27;16.90;62.53
74873;HTU21D;68776;44.762;37.698;2023-04-19T00:19:28;16.91;62.53
74873;HTU21D;68776;44.762;37.698;2023-04-19T00:20:29;16.90;62.58
74873;HTU21D;68776;44.762;37.698;2023-04-19T00:21:29;16.90;62.53
74873;HTU21D;68776;44.762;37.698;2023-04-19T00:22:31;16.89;62.46
74873;HTU21D;68776;44.762;37.698;2023-04-19T00:23:32;16.89;62.61
74873;HTU21D;68776;44.762;37.698;2023-04-19T00:24:33;16.87;62.88
74873;HTU21D;68776;44.762;37.698;2023-04-19T00:25:33;16.85;62.98
74873;HTU21D;68776;44.762;37.698;2023-04-19T00:26:35;16.81;63.11
74873;HTU21D;68776;44.762;37.698;2023-04-19T00:27:36;16.80;63.26
74873;HTU21D;68776;44.762;37.698;2023-04-19T00:28:37;16.78;63.31
74873;HTU21D;68776;44.762;37.698;2023-04-19T00:29:38;16.76;63.24
74873;HTU21D;68776;44.762;37.698;2023-04-19T00:30:39;16.74;63.27
74873;HTU21D;68776;44.762;37.698;2023-04-19T00:31:40;16.73;63.35
74873;HTU21D;68776;44.762;37.698;2023-04-19T00:32:41;16.73;63.19
74873;HTU21D;68776;44.762;37.698;2023-04-19T00:33:42;16.74;63.15
74873;HTU21D;68776;44.762;37.698;2023-04-19T00:34:43;16.75;62.97
74873;HTU21D;68776;44.762;37.698;2023-04-19T00:35:43;16.77;62.85
74873;HTU21D;68776;44.762;37.698;2023-04-19T00:36:47;16.79;63.03
74873;HTU21D;68776;44.762;37.698;2023-04-19T00:37:47;16.76;63.28
74873;HTU21D;68776;44.762;37.698;2023-04-19T00:38:48;16.76;63.36
74873;HTU21D;68776;44.762;37.698;2023-04-19T00:39:49;16.75;63.44
74873;HTU21D;68776;44.762;37.698;2023-04-19T00:40:50;16.74;63.59
74873;HTU21D;68776;44.762;37.698;2023-04-19T00:41:51;16.71;63.55
74873;HTU21D;68776;44.762;37.698;2023-04-19T00:42:52;16.72;63.24
74873;HTU21D;68776;44.762;37.698;2023-04-19T00:43:53;16.73;62.99
74873;HTU21D;68776;44.762;37.698;2023-04-19T00:44:54;16.74;62.95
74873;HTU21D;68776;44.762;37.698;2023-04-19T00:45:55;16.74;62.92
74873;HTU21D;68776;44.762;37.698;2023-04-19T00:46:56;16.74;63.23
74873;HTU21D;68776;44.762;37.698;2023-04-19T00:47:58;16.72;63.36
74873;HTU21D;68776;44.762;37.698;2023-04-19T00:48:59;16.70;63.52
74873;HTU21D;68776;44.762;37.698;2023-04-19T00:50:04;16.67;63.66
74873;HTU21D;68776;44.762;37.698;2023-04-19T00:51:06;16.64;63.73
74873;HTU21D;68776;44.762;37.698;2023-04-19T00:52:07;16.64;63.65
74873;HTU21D;68776;44.762;37.698;2023-04-19T00:53:11;16.64;63.66
74873;HTU21D;68776;44.762;37.698;2023-04-19T00:54:13;16.63;63.67
74873;HTU21D;68776;44.762;37.698;2023-04-19T00:55:15;16.62;63.69
74873;HTU21D;68776;44.762;37.698;2023-04-19T00:56:17;16.62;63.81
74873;HTU21D;68776;44.762;37.698;2023-04-19T00:57:18;16.62;63.94
74873;HTU21D;68776;44.762;37.698;2023-04-19T00:58:20;16.60;64.12
74873;HTU21D;68776;44.762;37.698;2023-04-19T00:59:21;16.60;64.06
74873;HTU21D;68776;44.762;37.698;2023-04-19T01:00:23;16.61;64.03
74873;HTU21D;68776;44.762;37.698;2023-04-19T01:01:25;16.61;63.87
74873;HTU21D;68776;44.762;37.698;2023-04-19T01:02:26;16.61;63.87
74873;HTU21D;68776;44.762;37.698;2023-04-19T01:03:28;16.61;63.96
74873;HTU21D;68776;44.762;37.698;2023-04-19T01:04:29;16.59;64.40
74873;HTU21D;68776;44.762;37.698;2023-04-19T01:05:30;16.59;64.57
74873;HTU21D;68776;44.762;37.698;2023-04-19T01:06:31;16.58;64.61
74873;HTU21D;68776;44.762;37.698;2023-04-19T01:07:33;16.58;64.67
74873;HTU21D;68776;44.762;37.698;2023-04-19T01:08:37;16.58;64.67
74873;HTU21D;68776;44.762;37.698;2023-04-19T01:09:42;16.57;64.82
74873;HTU21D;68776;44.762;37.698;2023-04-19T01:10:44;16.55;64.91
74873;HTU21D;68776;44.762;37.698;2023-04-19T01:11:45;16.54;65.31
74873;HTU21D;68776;44.762;37.698;2023-04-19T01:12:46;16.51;65.50
74873;HTU21D;68776;44.762;37.698;2023-04-19T01:13:47;16.47;65.70
74873;HTU21D;68776;44.762;37.698;2023-04-19T01:14:49;16.44;65.87
74873;HTU21D;68776;44.762;37.698;2023-04-19T01:15:51;16.44;65.97
74873;HTU21D;68776;44.762;37.698;2023-04-19T01:16:56;16.43;66.31
74873;HTU21D;68776;44.762;37.698;2023-04-19T01:17:57;16.42;66.62
74873;HTU21D;68776;44.762;37.698;2023-04-19T01:18:57;16.40;66.54
74873;HTU21D;68776;44.762;37.698;2023-04-19T01:20:00;16.39;66.36
74873;HTU21D;68776;44.762;37.698;2023-04-19T01:21:02;16.37;66.36
74873;HTU21D;68776;44.762;37.698;2023-04-19T01:22:03;16.37;66.48
74873;HTU21D;68776;44.762;37.698;2023-04-19T01:23:06;16.37;66.56
74873;HTU21D;68776;44.762;37.698;2023-04-19T01:24:11;16.35;66.76
74873;HTU21D;68776;44.762;37.698;2023-04-19T01:25:11;16.37;65.88
74873;HTU21D;68776;44.762;37.698;2023-04-19T01:26:12;16.39;65.59
74873;HTU21D;68776;44.762;37.698;2023-04-19T01:27:13;16.42;65.68
74873;HTU21D;68776;44.762;37.698;2023-04-19T01:28:16;16.43;65.74
74873;HTU21D;68776;44.762;37.698;2023-04-19T01:29:17;16.43;65.68
74873;HTU21D;68776;44.762;37.698;2023-04-19T01:30:19;16.43;65.72
74873;HTU21D;68776;44.762;37.698;2023-04-19T01:31:21;16.42;65.59
74873;HTU21D;68776;44.762;37.698;2023-04-19T01:32:21;16.41;65.91
74873;HTU21D;68776;44.762;37.698;2023-04-19T01:33:23;16.41;66.12
74873;HTU21D;68776;44.762;37.698;2023-04-19T01:34:24;16.41;66.20
74873;HTU21D;68776;44.762;37.698;2023-04-19T01:35:25;16.41;66.11
74873;HTU21D;68776;44.762;37.698;2023-04-19T01:36:26;16.42;65.96
74873;HTU21D;68776;44.762;37.698;2023-04-19T01:37:27;16.43;65.27
74873;HTU21D;68776;44.762;37.698;2023-04-19T01:38:28;16.46;65.51
74873;HTU21D;68776;44.762;37.698;2023-04-19T01:39:29;16.46;65.89
74873;HTU21D;68776;44.762;37.698;2023-04-19T01:40:30;16.44;66.20
74873;HTU21D;68776;44.762;37.698;2023-04-19T01:41:31;16.41;66.85
74873;HTU21D;68776;44.762;37.698;2023-04-19T01:42:32;16.36;67.27
74873;HTU21D;68776;44.762;37.698;2023-04-19T01:43:34;16.31;67.78
74873;HTU21D;68776;44.762;37.698;2023-04-19T01:44:35;16.27;67.73
74873;HTU21D;68776;44.762;37.698;2023-04-19T01:45:36;16.19;68.03
74873;HTU21D;68776;44.762;37.698;2023-04-19T01:46:37;16.17;68.17
74873;HTU21D;68776;44.762;37.698;2023-04-19T01:47:38;16.15;68.40
74873;HTU21D;68776;44.762;37.698;2023-04-19T01:48:39;16.16;68.48
74873;HTU21D;68776;44.762;37.698;2023-04-19T01:49:40;16.15;68.60
74873;HTU21D;68776;44.762;37.698;2023-04-19T01:50:41;16.13;68.89
74873;HTU21D;68776;44.762;37.698;2023-04-19T01:51:42;16.12;68.91
74873;HTU21D;68776;44.762;37.698;2023-04-19T01:52:43;16.13;68.70
74873;HTU21D;68776;44.762;37.698;2023-04-19T01:53:44;16.14;68.27
74873;HTU21D;68776;44.762;37.698;2023-04-19T01:54:45;16.15;67.94
74873;HTU21D;68776;44.762;37.698;2023-04-19T01:55:49;16.18;67.73
74873;HTU21D;68776;44.762;37.698;2023-04-19T01:56:50;16.20;67.44
74873;HTU21D;68776;44.762;37.698;2023-04-19T01:57:51;16.24;0.00
74873;HTU21D;68776;44.762;37.698;2023-04-19T01:58:55;16.29;66.27
74873;HTU21D;68776;44.762;37.698;2023-04-19T01:59:56;16.34;65.67
74873;HTU21D;68776;44.762;37.698;2023-04-19T02:00:57;16.43;64.92
74873;HTU21D;68776;44.762;37.698;2023-04-19T02:01:58;16.50;64.74
74873;HTU21D;68776;44.762;37.698;2023-04-19T02:02:59;16.54;64.76
74873;HTU21D;68776;44.762;37.698;2023-04-19T02:04:01;16.56;65.12
74873;HTU21D;68776;44.762;37.698;2023-04-19T02:05:04;16.55;65.40
74873;HTU21D;68776;44.762;37.698;2023-04-19T02:06:11;16.52;65.66
74873;HTU21D;68776;44.762;37.698;2023-04-19T02:07:12;16.50;65.87
74873;HTU21D;68776;44.762;37.698;2023-04-19T02:08:13;16.48;66.05
74873;HTU21D;68776;44.762;37.698;2023-04-19T02:09:14;16.47;66.32
74873;HTU21D;68776;44.762;37.698;2023-04-19T02:10:16;16.45;66.43
74873;HTU21D;68776;44.762;37.698;2023-04-19T02:11:17;16.44;66.52
74873;HTU21D;68776;44.762;37.698;2023-04-19T02:12:18;16.42;66.62
74873;HTU21D;68776;44.762;37.698;2023-04-19T02:13:19;16.42;66.78
74873;HTU21D;68776;44.762;37.698;2023-04-19T02:14:20;16.39;67.09
74873;HTU21D;68776;44.762;37.698;2023-04-19T02:15:21;16.36;67.62
74873;HTU21D;68776;44.762;37.698;2023-04-19T02:16:22;16.32;68.15
74873;HTU21D;68776;44.762;37.698;2023-04-19T02:17:24;16.26;68.73
74873;HTU21D;68776;44.762;37.698;2023-04-19T02:18:25;16.20;69.08
74873;HTU21D;68776;44.762;37.698;2023-04-19T02:19:26;16.16;69.64
74873;HTU21D;68776;44.762;37.698;2023-04-19T02:20:27;16.11;70.16
74873;HTU21D;68776;44.762;37.698;2023-04-19T02:21:28;16.04;70.45
74873;HTU21D;68776;44.762;37.698;2023-04-19T02:22:29;16.00;70.61
74873;HTU21D;68776;44.762;37.698;2023-04-19T02:23:30;15.96;70.84
74873;HTU21D;68776;44.762;37.698;2023-04-19T02:24:31;15.91;71.10
74873;HTU21D;68776;44.762;37.698;2023-04-19T02:25:32;15.86;71.57
74873;HTU21D;68776;44.762;37.698;2023-04-19T02:26:33;15.76;71.92
74873;HTU21D;68776;44.762;37.698;2023-04-19T02:27:34;15.69;72.36
74873;HTU21D;68776;44.762;37.698;2023-04-19T02:28:35;15.58;72.83
74873;HTU21D;68776;44.762;37.698;2023-04-19T02:29:37;15.52;73.19
74873;HTU21D;68776;44.762;37.698;2023-04-19T02:30:38;15.44;73.51
74873;HTU21D;68776;44.762;37.698;2023-04-19T02:31:39;15.43;73.74
74873;HTU21D;68776;44.762;37.698;2023-04-19T02:32:43;15.40;73.83
74873;HTU21D;68776;44.762;37.698;2023-04-19T02:33:45;15.41;73.97
74873;HTU21D;68776;44.762;37.698;2023-04-19T02:34:46;15.40;74.22
74873;HTU21D;68776;44.762;37.698;2023-04-19T02:35:47;15.38;74.58
74873;HTU21D;68776;44.762;37.698;2023-04-19T02:36:48;15.39;74.68
74873;HTU21D;68776;44.762;37.698;2023-04-19T02:37:49;15.38;74.86
74873;HTU21D;68776;44.762;37.698;2023-04-19T02:38:52;15.37;74.84
74873;HTU21D;68776;44.762;37.698;2023-04-19T02:39:54;15.38;74.60
74873;HTU21D;68776;44.762;37.698;2023-04-19T02:40:55;15.40;74.64
74873;HTU21D;68776;44.762;37.698;2023-04-19T02:41:56;15.41;74.62
74873;HTU21D;68776;44.762;37.698;2023-04-19T02:42:57;15.44;74.31
74873;HTU21D;68776;44.762;37.698;2023-04-19T02:43:58;15.47;73.89
74873;HTU21D;68776;44.762;37.698;2023-04-19T02:44:59;15.48;73.65
74873;HTU21D;68776;44.762;37.698;2023-04-19T02:46:00;15.48;73.39
74873;HTU21D;68776;44.762;37.698;2023-04-19T02:47:01;15.53;72.64
74873;HTU21D;68776;44.762;37.698;2023-04-19T02:48:02;15.55;72.29
74873;HTU21D;68776;44.762;37.698;2023-04-19T02:49:04;15.58;72.34
74873;HTU21D;68776;44.762;37.698;2023-04-19T02:50:05;15.60;72.50
74873;HTU21D;68776;44.762;37.698;2023-04-19T02:51:15;15.61;72.70
74873;HTU21D;68776;44.762;37.698;2023-04-19T02:52:17;15.61;73.15
74873;HTU21D;68776;44.762;37.698;2023-04-19T02:53:18;15.61;72.81
74873;HTU21D;68776;44.762;37.698;2023-04-19T02:54:21;15.60;73.33
74873;HTU21D;68776;44.762;37.698;2023-04-19T02:55:22;15.61;73.67
74873;HTU21D;68776;44.762;37.698;2023-04-19T02:56:31;15.61;73.89
74873;HTU21D;68776;44.762;37.698;2023-04-19T02:57:32;15.62;73.99
74873;HTU21D;68776;44.762;37.698;2023-04-19T02:58:35;15.61;74.24
74873;HTU21D;68776;44.762;37.698;2023-04-19T02:59:39;15.59;74.56
74873;HTU21D;68776;44.762;37.698;2023-04-19T03:00:40;15.56;75.22
74873;HTU21D;68776;44.762;37.698;2023-04-19T03:01:45;15.49;75.84
74873;HTU21D;68776;44.762;37.698;2023-04-19T03:02:46;15.44;76.14
74873;HTU21D;68776;44.762;37.698;2023-04-19T03:03:47;15.43;76.31
74873;HTU21D;68776;44.762;37.698;2023-04-19T03:04:47;15.41;76.47
74873;HTU21D;68776;44.762;37.698;2023-04-19T03:05:49;15.39;76.50
74873;HTU21D;68776;44.762;37.698;2023-04-19T03:06:51;15.36;76.50
74873;HTU21D;68776;44.762;37.698;2023-04-19T03:07:52;15.33;76.63
74873;HTU21D;68776;44.762;37.698;2023-04-19T03:08:54;15.31;76.72
74873;HTU21D;68776;44.762;37.698;2023-04-19T03:09:55;15.29;76.93
74873;HTU21D;68776;44.762;37.698;2023-04-19T03:10:57;15.28;77.35
74873;HTU21D;68776;44.762;37.698;2023-04-19T03:11:58;15.24;77.66
74873;HTU21D;68776;44.762;37.698;2023-04-19T03:12:59;15.22;77.83
74873;HTU21D;68776;44.762;37.698;2023-04-19T03:14:00;15.25;77.56
74873;HTU21D;68776;44.762;37.698;2023-04-19T03:15:01;15.25;77.36
74873;HTU21D;68776;44.762;37.698;2023-04-19T03:16:02;15.26;77.35
74873;HTU21D;68776;44.762;37.698;2023-04-19T03:17:05;15.26;77.44
74873;HTU21D;68776;44.762;37.698;2023-04-19T03:18:07;15.25;77.69
74873;HTU21D;68776;44.762;37.698;2023-04-19T03:19:09;15.25;77.54
74873;HTU21D;68776;44.762;37.698;2023-04-19T03:20:18;15.27;77.15
74873;HTU21D;68776;44.762;37.698;2023-04-19T03:21:20;15.26;77.24
74873;HTU21D;68776;44.762;37.698;2023-04-19T03:22:26;15.29;77.13
74873;HTU21D;68776;44.762;37.698;2023-04-19T03:23:27;15.32;76.95
74873;HTU21D;68776;44.762;37.698;2023-04-19T03:24:29;15.37;76.90
74873;HTU21D;68776;44.762;37.698;2023-04-19T03:25:32;15.40;76.73
74873;HTU21D;68776;44.762;37.698;2023-04-19T03:26:46;15.42;76.51
74873;HTU21D;68776;44.762;37.698;2023-04-19T03:27:48;15.44;76.66
74873;HTU21D;68776;44.762;37.698;2023-04-19T03:28:55;15.45;76.70
74873;HTU21D;68776;44.762;37.698;2023-04-19T03:30:06;15.44;76.78
74873;HTU21D;68776;44.762;37.698;2023-04-19T03:31:08;15.42;76.79
74873;HTU21D;68776;44.762;37.698;2023-04-19T03:32:09;15.43;76.56
74873;HTU21D;68776;44.762;37.698;2023-04-19T03:33:10;15.46;76.37
74873;HTU21D;68776;44.762;37.698;2023-04-19T03:34:11;15.44;76.32
74873;HTU21D;68776;44.762;37.698;2023-04-19T03:35:16;15.43;76.25
74873;HTU21D;68776;44.762;37.698;2023-04-19T03:36:17;15.44;76.10
74873;HTU21D;68776;44.762;37.698;2023-04-19T03:37:20;15.47;75.81
74873;HTU21D;68776;44.762;37.698;2023-04-19T03:38:21;15.47;76.02
74873;HTU21D;68776;44.762;37.698;2023-04-19T03:39:22;15.48;75.99
74873;HTU21D;68776;44.762;37.698;2023-04-19T03:40:26;15.48;76.24
74873;HTU21D;68776;44.762;37.698;2023-04-19T03:41:27;15.48;76.05
74873;HTU21D;68776;44.762;37.698;2023-04-19T03:42:47;15.54;75.67
74873;HTU21D;68776;44.762;37.698;2023-04-19T03:43:58;15.53;76.13
74873;HTU21D;68776;44.762;37.698;2023-04-19T03:44:59;15.53;76.36
74873;HTU21D;68776;44.762;37.698;2023-04-19T03:46:02;15.54;76.53
74873;HTU21D;68776;44.762;37.698;2023-04-19T03:47:03;15.53;76.60
74873;HTU21D;68776;44.762;37.698;2023-04-19T03:48:08;15.52;76.89
74873;HTU21D;68776;44.762;37.698;2023-04-19T03:49:09;15.53;76.89
74873;HTU21D;68776;44.762;37.698;2023-04-19T03:50:10;15.53;76.73
74873;HTU21D;68776;44.762;37.698;2023-04-19T03:51:13;15.55;76.66
74873;HTU21D;68776;44.762;37.698;2023-04-19T03:52:15;15.58;76.47
74873;HTU21D;68776;44.762;37.698;2023-04-19T03:53:16;15.57;76.12
74873;HTU21D;68776;44.762;37.698;2023-04-19T03:54:18;15.57;76.44
74873;HTU21D;68776;44.762;37.698;2023-04-19T03:55:19;15.58;76.37
74873;HTU21D;68776;44.762;37.698;2023-04-19T03:56:20;15.56;76.67
74873;HTU21D;68776;44.762;37.698;2023-04-19T03:57:22;15.56;76.70
74873;HTU21D;68776;44.762;37.698;2023-04-19T03:58:23;15.55;77.15
74873;HTU21D;68776;44.762;37.698;2023-04-19T03:59:34;15.55;77.05
74873;HTU21D;68776;44.762;37.698;2023-04-19T04:00:36;15.53;77.11
74873;HTU21D;68776;44.762;37.698;2023-04-19T04:01:37;15.48;77.56
74873;HTU21D;68776;44.762;37.698;2023-04-19T04:02:41;15.46;77.66
74873;HTU21D;68776;44.762;37.698;2023-04-19T04:03:43;15.48;77.57
74873;HTU21D;68776;44.762;37.698;2023-04-19T04:04:44;15.48;77.60
74873;HTU21D;68776;44.762;37.698;2023-04-19T04:05:45;15.45;77.13
74873;HTU21D;68776;44.762;37.698;2023-04-19T04:06:46;15.42;76.91
74873;HTU21D;68776;44.762;37.698;2023-04-19T04:07:49;15.42;76.85
74873;HTU21D;68776;44.762;37.698;2023-04-19T04:08:52;15.40;76.54
74873;HTU21D;68776;44.762;37.698;2023-04-19T04:09:53;15.36;76.49
74873;HTU21D;68776;44.762;37.698;2023-04-19T04:10:53;15.37;76.41
74873;HTU21D;68776;44.762;37.698;2023-04-19T04:11:55;15.34;76.31
74873;HTU21D;68776;44.762;37.698;2023-04-19T04:12:56;15.37;76.18
74873;HTU21D;68776;44.762;37.698;2023-04-19T04:14:04;15.33;76.24
74873;HTU21D;68776;44.762;37.698;2023-04-19T04:15:08;15.34;76.20
74873;HTU21D;68776;44.762;37.698;2023-04-19T04:16:12;15.34;76.16
74873;HTU21D;68776;44.762;37.698;2023-04-19T04:17:14;15.34;76.06
74873;HTU21D;68776;44.762;37.698;2023-04-19T04:18:15;15.34;76.05
74873;HTU21D;68776;44.762;37.698;2023-04-19T04:19:16;15.36;75.90
74873;HTU21D;68776;44.762;37.698;2023-04-19T04:20:19;15.37;75.79
74873;HTU21D;68776;44.762;37.698;2023-04-19T04:21:20;15.38;75.86
74873;HTU21D;68776;44.762;37.698;2023-04-19T04:22:24;15.37;75.78
74873;HTU21D;68776;44.762;37.698;2023-04-19T04:23:25;15.36;75.77
74873;HTU21D;68776;44.762;37.698;2023-04-19T04:24:28;15.36;75.76
74873;HTU21D;68776;44.762;37.698;2023-04-19T04:25:56;15.37;75.63
74873;HTU21D;68776;44.762;37.698;2023-04-19T04:27:01;15.37;75.66
74873;HTU21D;68776;44.762;37.698;2023-04-19T04:28:06;15.37;75.65
74873;HTU21D;68776;44.762;37.698;2023-04-19T04:29:07;15.37;75.68
74873;HTU21D;68776;44.762;37.698;2023-04-19T04:30:10;15.39;75.63
74873;HTU21D;68776;44.762;37.698;2023-04-19T04:31:11;15.40;75.56
74873;HTU21D;68776;44.762;37.698;2023-04-19T04:32:14;15.42;75.68
74873;HTU21D;68776;44.762;37.698;2023-04-19T04:33:17;15.43;75.54
74873;HTU21D;68776;44.762;37.698;2023-04-19T04:34:18;15.44;75.51
74873;HTU21D;68776;44.762;37.698;2023-04-19T04:35:26;15.44;75.54
74873;HTU21D;68776;44.762;37.698;2023-04-19T04:36:39;15.46;75.57
74873;HTU21D;68776;44.762;37.698;2023-04-19T04:37:41;15.48;75.54
74873;HTU21D;68776;44.762;37.698;2023-04-19T04:38:43;15.48;75.73
74873;HTU21D;68776;44.762;37.698;2023-04-19T04:39:44;15.53;75.67
74873;HTU21D;68776;44.762;37.698;2023-04-19T04:40:54;15.55;75.54
74873;HTU21D;68776;44.762;37.698;2023-04-19T04:41:56;15.57;75.53
74873;HTU21D;68776;44.762;37.698;2023-04-19T04:42:58;15.60;75.39
74873;HTU21D;68776;44.762;37.698;2023-04-19T04:44:01;15.63;75.17
74873;HTU21D;68776;44.762;37.698;2023-04-19T04:45:04;15.66;75.06
74873;HTU21D;68776;44.762;37.698;2023-04-19T04:46:07;15.65;75.00
74873;HTU21D;68776;44.762;37.698;2023-04-19T04:47:12;15.66;75.14
74873;HTU21D;68776;44.762;37.698;2023-04-19T04:48:20;15.65;75.09
74873;HTU21D;68776;44.762;37.698;2023-04-19T04:49:21;15.63;75.16
74873;HTU21D;68776;44.762;37.698;2023-04-19T04:50:22;15.62;75.05
74873;HTU21D;68776;44.762;37.698;2023-04-19T04:51:23;15.61;74.94
74873;HTU21D;68776;44.762;37.698;2023-04-19T04:52:27;15.60;74.78
74873;HTU21D;68776;44.762;37.698;2023-04-19T04:53:47;15.58;74.84
74873;HTU21D;68776;44.762;37.698;2023-04-19T04:54:48;15.56;74.74
74873;HTU21D;68776;44.762;37.698;2023-04-19T04:55:56;15.59;74.60
74873;HTU21D;68776;44.762;37.698;2023-04-19T04:56:58;15.61;74.51
74873;HTU21D;68776;44.762;37.698;2023-04-19T04:57:58;15.62;74.62
74873;HTU21D;68776;44.762;37.698;2023-04-19T04:59:12;15.69;74.70
74873;HTU21D;68776;44.762;37.698;2023-04-19T05:00:17;15.71;74.84
74873;HTU21D;68776;44.762;37.698;2023-04-19T05:01:29;15.70;74.82
74873;HTU21D;68776;44.762;37.698;2023-04-19T05:02:31;15.70;74.67
74873;HTU21D;68776;44.762;37.698;2023-04-19T05:03:32;15.69;74.42
74873;HTU21D;68776;44.762;37.698;2023-04-19T05:04:36;15.68;74.38
74873;HTU21D;68776;44.762;37.698;2023-04-19T05:05:37;15.69;74.21
74873;HTU21D;68776;44.762;37.698;2023-04-19T05:06:38;15.68;74.28
74873;HTU21D;68776;44.762;37.698;2023-04-19T05:07:42;15.68;74.25
74873;HTU21D;68776;44.762;37.698;2023-04-19T05:08:43;15.71;74.10
74873;HTU21D;68776;44.762;37.698;2023-04-19T05:09:58;15.71;74.29
74873;HTU21D;68776;44.762;37.698;2023-04-19T05:11:05;15.69;74.34
74873;HTU21D;68776;44.762;37.698;2023-04-19T05:12:06;15.71;74.32
74873;HTU21D;68776;44.762;37.698;2023-04-19T05:13:07;15.76;74.24
74873;HTU21D;68776;44.762;37.698;2023-04-19T05:14:08;15.81;74.20
74873;HTU21D;68776;44.762;37.698;2023-04-19T05:15:09;15.83;73.64
74873;HTU21D;68776;44.762;37.698;2023-04-19T05:16:13;15.86;73.29
74873;HTU21D;68776;44.762;37.698;2023-04-19T05:17:17;15.91;72.87
74873;HTU21D;68776;44.762;37.698;2023-04-19T05:18:19;15.97;72.81
74873;HTU21D;68776;44.762;37.698;2023-04-19T05:19:20;16.00;72.67
74873;HTU21D;68776;44.762;37.698;2023-04-19T05:20:28;16.04;72.56
74873;HTU21D;68776;44.762;37.698;2023-04-19T05:21:38;16.08;72.11
74873;HTU21D;68776;44.762;37.698;2023-04-19T05:22:41;16.12;72.27
74873;HTU21D;68776;44.762;37.698;2023-04-19T05:23:43;16.12;72.36
74873;HTU21D;68776;44.762;37.698;2023-04-19T05:24:46;16.14;72.32
74873;HTU21D;68776;44.762;37.698;2023-04-19T05:25:50;16.14;72.44
74873;HTU21D;68776;44.762;37.698;2023-04-19T05:26:51;16.14;72.32
74873;HTU21D;68776;44.762;37.698;2023-04-19T05:27:52;16.16;72.22
74873;HTU21D;68776;44.762;37.698;2023-04-19T05:28:53;16.21;72.35
74873;HTU21D;68776;44.762;37.698;2023-04-19T05:30:06;16.28;71.90
74873;HTU21D;68776;44.762;37.698;2023-04-19T05:31:08;16.34;71.40
74873;HTU21D;68776;44.762;37.698;2023-04-19T05:32:17;16.42;71.10
74873;HTU21D;68776;44.762;37.698;2023-04-19T05:33:30;16.48;71.06
74873;HTU21D;68776;44.762;37.698;2023-04-19T05:34:31;16.47;70.88
74873;HTU21D;68776;44.762;37.698;2023-04-19T05:35:33;16.45;70.84
74873;HTU21D;68776;44.762;37.698;2023-04-19T05:36:35;16.45;70.92
74873;HTU21D;68776;44.762;37.698;2023-04-19T05:37:37;16.52;71.58
74873;HTU21D;68776;44.762;37.698;2023-04-19T05:38:38;16.61;72.30
74873;HTU21D;68776;44.762;37.698;2023-04-19T05:39:42;16.69;71.58
74873;HTU21D;68776;44.762;37.698;2023-04-19T05:40:43;16.74;70.68
74873;HTU21D;68776;44.762;37.698;2023-04-19T05:41:44;16.84;69.95
74873;HTU21D;68776;44.762;37.698;2023-04-19T05:42:45;16.95;69.39
74873;HTU21D;68776;44.762;37.698;2023-04-19T05:43:46;17.07;68.99
74873;HTU21D;68776;44.762;37.698;2023-04-19T05:44:47;17.19;69.37
74873;HTU21D;68776;44.762;37.698;2023-04-19T05:45:50;17.30;69.62
74873;HTU21D;68776;44.762;37.698;2023-04-19T05:46:51;17.35;69.10
74873;HTU21D;68776;44.762;37.698;2023-04-19T05:48:05;17.41;68.65
74873;HTU21D;68776;44.762;37.698;2023-04-19T05:49:25;17.53;68.38
74873;HTU21D;68776;44.762;37.698;2023-04-19T05:50:49;17.59;67.81
74873;HTU21D;68776;44.762;37.698;2023-04-19T05:52:03;17.63;67.47
74873;HTU21D;68776;44.762;37.698;2023-04-19T05:53:10;17.61;67.56
74873;HTU21D;68776;44.762;37.698;2023-04-19T05:54:10;17.61;67.46
74873;HTU21D;68776;44.762;37.698;2023-04-19T05:55:16;17.64;67.57
74873;HTU21D;68776;44.762;37.698;2023-04-19T05:56:19;17.66;67.05
74873;HTU21D;68776;44.762;37.698;2023-04-19T05:57:20;17.69;66.83
74873;HTU21D;68776;44.762;37.698;2023-04-19T05:58:21;17.78;67.20
74873;HTU21D;68776;44.762;37.698;2023-04-19T05:59:22;17.83;67.07
74873;HTU21D;68776;44.762;37.698;2023-04-19T06:00:23;17.94;66.74
74873;HTU21D;68776;44.762;37.698;2023-04-19T06:01:32;18.09;66.49
74873;HTU21D;68776;44.762;37.698;2023-04-19T06:02:35;18.20;66.71
74873;HTU21D;68776;44.762;37.698;2023-04-19T06:03:36;18.28;66.58
74873;HTU21D;68776;44.762;37.698;2023-04-19T06:04:37;18.40;65.88
74873;HTU21D;68776;44.762;37.698;2023-04-19T06:05:38;18.47;64.72
74873;HTU21D;68776;44.762;37.698;2023-04-19T06:06:40;18.58;64.72
74873;HTU21D;68776;44.762;37.698;2023-04-19T06:07:41;18.68;64.21
74873;HTU21D;68776;44.762;37.698;2023-04-19T06:08:42;18.80;63.50
74873;HTU21D;68776;44.762;37.698;2023-04-19T06:09:44;0.00;62.73
74873;HTU21D;68776;44.762;37.698;2023-04-19T06:10:45;18.97;62.11
74873;HTU21D;68776;44.762;37.698;2023-04-19T06:11:49;19.03;61.63
74873;HTU21D;68776;44.762;37.698;2023-04-19T06:12:50;19.11;61.74
74873;HTU21D;68776;44.762;37.698;2023-04-19T06:13:50;19.18;61.10
74873;HTU21D;68776;44.762;37.698;2023-04-19T06:14:52;19.24;60.87
74873;HTU21D;68776;44.762;37.698;2023-04-19T06:15:53;19.27;60.52
74873;HTU21D;68776;44.762;37.698;2023-04-19T06:16:54;19.28;60.52
74873;HTU21D;68776;44.762;37.698;2023-04-19T06:17:56;19.31;60.14
74873;HTU21D;68776;44.762;37.698;2023-04-19T06:18:57;19.37;60.10
74873;HTU21D;68776;44.762;37.698;2023-04-19T06:19:58;19.42;59.88
74873;HTU21D;68776;44.762;37.698;2023-04-19T06:20:59;19.46;59.73
74873;HTU21D;68776;44.762;37.698;2023-04-19T06:22:00;19.53;59.87
74873;HTU21D;68776;44.762;37.698;2023-04-19T06:23:02;19.59;60.07